sensor_id;sensor_type;location;lat;lon;timestamp;pressure;altitude;pressure_sealevel;temperature;humidity
30021;BME280;16861;52.294;7.760;2023-09-08T00:02:27;100113.50;;;25.28;43.85
30021;BME280;16861;52.294;7.760;2023-09-08T00:04:55;100116.84;;;25.30;43.53
30021;BME280;16861;52.294;7.760;2023-09-08T00:07:22;100117.84;;;25.29;43.72
30021;BME280;16861;52.294;7.760;2023-09-08T00:09:48;100114.50;;;25.27;43.76
30021;BME280;16861;52.294;7.760;2023-09-08T00:12:15;100107.41;;;25.26;43.82
30021;BME280;16861;52.294;7.760;2023-09-08T00:14:42;100105.75;;;25.25;43.87
30021;BME280;16861;52.294;7.760;2023-09-08T00:17:09;100099.72;;;25.23;43.34
30021;BME280;16861;52.294;7.760;2023-09-08T00:19:36;100104.41;;;25.21;43.82
30021;BME280;16861;52.294;7.760;2023-09-08T00:22:03;100103.56;;;25.20;43.80
30021;BME280;16861;52.294;7.760;2023-09-08T00:24:32;100106.63;;;25.17;43.70
30021;BME280;16861;52.294;7.760;2023-09-08T00:26:59;100105.97;;;25.15;43.84
30021;BME280;16861;52.294;7.760;2023-09-08T00:29:25;100104.44;;;25.13;44.21
30021;BME280;16861;52.294;7.760;2023-09-08T00:31:52;100103.81;;;25.10;44.05
30021;BME280;16861;52.294;7.760;2023-09-08T00:34:19;100096.91;;;25.08;44.00
30021;BME280;16861;52.294;7.760;2023-09-08T00:36:45;100097.09;;;25.06;44.23
30021;BME280;16861;52.294;7.760;2023-09-08T00:39:12;100093.72;;;25.04;44.12
30021;BME280;16861;52.294;7.760;2023-09-08T00:41:38;100090.19;;;25.04;44.34
30021;BME280;16861;52.294;7.760;2023-09-08T00:44:05;100090.38;;;25.02;43.89
30021;BME280;16861;52.294;7.760;2023-09-08T00:46:32;100089.84;;;24.98;44.30
30021;BME280;16861;52.294;7.760;2023-09-08T00:48:59;100091.72;;;24.98;43.98
30021;BME280;16861;52.294;7.760;2023-09-08T00:51:27;100094.75;;;24.95;44.12
30021;BME280;16861;52.294;7.760;2023-09-08T00:53:53;100099.50;;;24.93;44.04
30021;BME280;16861;52.294;7.760;2023-09-08T00:56:20;100094.44;;;24.90;44.41
30021;BME280;16861;52.294;7.760;2023-09-08T00:58:47;100091.94;;;24.88;44.07
30021;BME280;16861;52.294;7.760;2023-09-08T01:01:13;100086.06;;;24.84;44.15
30021;BME280;16861;52.294;7.760;2023-09-08T01:03:40;100087.03;;;24.83;44.06
30021;BME280;16861;52.294;7.760;2023-09-08T01:06:07;100084.53;;;24.82;44.44
30021;BME280;16861;52.294;7.760;2023-09-08T01:08:34;100086.53;;;24.80;44.27
30021;BME280;16861;52.294;7.760;2023-09-08T01:11:02;100084.88;;;24.79;44.05
30021;BME280;16861;52.294;7.760;2023-09-08T01:13:29;100086.88;;;24.77;44.18
30021;BME280;16861;52.294;7.760;2023-09-08T01:15:56;100089.75;;;24.75;44.40
30021;BME280;16861;52.294;7.760;2023-09-08T01:18:22;100085.56;;;24.72;44.58
30021;BME280;16861;52.294;7.760;2023-09-08T01:26:41;100084.41;;;24.67;44.24
30021;BME280;16861;52.294;7.760;2023-09-08T01:29:09;100083.72;;;24.65;44.48
30021;BME280;16861;52.294;7.760;2023-09-08T01:31:37;100087.59;;;24.62;44.71
30021;BME280;16861;52.294;7.760;2023-09-08T01:34:05;100086.09;;;24.59;45.09
30021;BME280;16861;52.294;7.760;2023-09-08T01:36:34;100083.72;;;24.56;44.99
30021;BME280;16861;52.294;7.760;2023-09-08T01:39:01;100090.13;;;24.55;44.80
30021;BME280;16861;52.294;7.760;2023-09-08T01:41:29;100085.09;;;24.52;44.58
30021;BME280;16861;52.294;7.760;2023-09-08T01:43:58;100084.44;;;24.50;45.07
30021;BME280;16861;52.294;7.760;2023-09-08T01:46:25;100083.75;;;24.48;45.12
30021;BME280;16861;52.294;7.760;2023-09-08T01:48:52;100085.78;;;24.46;44.84
30021;BME280;16861;52.294;7.760;2023-09-08T01:51:18;100085.94;;;24.44;45.32
30021;BME280;16861;52.294;7.760;2023-09-08T01:53:45;100083.44;;;24.43;45.21
30021;BME280;16861;52.294;7.760;2023-09-08T01:56:11;100081.09;;;24.40;45.17
30021;BME280;16861;52.294;7.760;2023-09-08T01:58:38;100071.50;;;24.37;44.85
30021;BME280;16861;52.294;7.760;2023-09-08T02:01:04;100074.53;;;24.34;45.03
30021;BME280;16861;52.294;7.760;2023-09-08T02:03:32;100077.41;;;24.32;45.13
30021;BME280;16861;52.294;7.760;2023-09-08T02:05:59;100067.81;;;24.30;45.19
30021;BME280;16861;52.294;7.760;2023-09-08T02:08:26;100064.59;;;24.26;45.46
30021;BME280;16861;52.294;7.760;2023-09-08T02:10:52;100069.34;;;24.24;45.56
30021;BME280;16861;52.294;7.760;2023-09-08T02:13:19;100058.09;;;24.20;45.60
30021;BME280;16861;52.294;7.760;2023-09-08T02:15:46;100060.09;;;24.18;45.66
30021;BME280;16861;52.294;7.760;2023-09-08T02:18:14;100060.41;;;24.15;45.52
30021;BME280;16861;52.294;7.760;2023-09-08T02:20:40;100062.44;;;24.13;45.63
30021;BME280;16861;52.294;7.760;2023-09-08T02:23:07;100061.94;;;24.10;45.59
30021;BME280;16861;52.294;7.760;2023-09-08T02:25:34;100063.94;;;24.07;45.26
30021;BME280;16861;52.294;7.760;2023-09-08T02:28:01;100057.91;;;24.05;45.79
30021;BME280;16861;52.294;7.760;2023-09-08T02:30:27;100059.06;;;24.03;45.73
30021;BME280;16861;52.294;7.760;2023-09-08T02:32:54;100067.31;;;24.01;45.67
30021;BME280;16861;52.294;7.760;2023-09-08T02:35:23;100059.56;;;23.98;46.02
30021;BME280;16861;52.294;7.760;2023-09-08T02:37:50;100064.28;;;23.96;45.76
30021;BME280;16861;52.294;7.760;2023-09-08T02:40:17;100055.53;;;23.94;45.92
30021;BME280;16861;52.294;7.760;2023-09-08T02:42:45;100062.94;;;23.92;45.47
30021;BME280;16861;52.294;7.760;2023-09-08T02:45:12;100060.41;;;23.90;45.89
30021;BME280;16861;52.294;7.760;2023-09-08T02:47:38;100062.59;;;23.87;45.83
30021;BME280;16861;52.294;7.760;2023-09-08T02:50:05;100068.13;;;23.85;46.19
30021;BME280;16861;52.294;7.760;2023-09-08T02:52:33;100061.22;;;23.82;46.15
30021;BME280;16861;52.294;7.760;2023-09-08T02:55:01;100062.25;;;23.81;46.01
30021;BME280;16861;52.294;7.760;2023-09-08T02:57:28;100071.50;;;23.79;46.38
30021;BME280;16861;52.294;7.760;2023-09-08T02:59:54;100070.81;;;23.77;46.19
30021;BME280;16861;52.294;7.760;2023-09-08T03:02:24;100071.16;;;23.74;46.31
30021;BME280;16861;52.294;7.760;2023-09-08T03:04:51;100061.41;;;23.73;46.13
30021;BME280;16861;52.294;7.760;2023-09-08T03:07:18;100068.94;;;23.69;46.32
30021;BME280;16861;52.294;7.760;2023-09-08T03:09:44;100069.97;;;23.68;46.55
30021;BME280;16861;52.294;7.760;2023-09-08T03:12:11;100069.47;;;23.64;46.40
30021;BME280;16861;52.294;7.760;2023-09-08T03:14:38;100066.94;;;23.63;46.84
30021;BME280;16861;52.294;7.760;2023-09-08T03:17:04;100062.75;;;23.60;46.36
30021;BME280;16861;52.294;7.760;2023-09-08T03:19:31;100067.59;;;23.56;46.50
30021;BME280;16861;52.294;7.760;2023-09-08T03:21:58;100061.56;;;23.54;46.70
30021;BME280;16861;52.294;7.760;2023-09-08T03:24:24;100058.38;;;23.51;46.96
30021;BME280;16861;52.294;7.760;2023-09-08T03:26:51;100054.16;;;23.48;46.69
30021;BME280;16861;52.294;7.760;2023-09-08T03:29:17;100058.00;;;23.46;47.06
30021;BME280;16861;52.294;7.760;2023-09-08T03:31:44;100054.81;;;23.42;46.73
30021;BME280;16861;52.294;7.760;2023-09-08T03:34:10;100052.44;;;23.39;47.12
30021;BME280;16861;52.294;7.760;2023-09-08T03:36:37;100047.41;;;23.36;47.29
30021;BME280;16861;52.294;7.760;2023-09-08T03:39:04;100061.00;;;23.34;47.10
30021;BME280;16861;52.294;7.760;2023-09-08T03:41:30;100057.75;;;23.30;47.22
30021;BME280;16861;52.294;7.760;2023-09-08T03:43:57;100056.09;;;23.29;47.63
30021;BME280;16861;52.294;7.760;2023-09-08T03:46:23;100059.13;;;23.26;47.35
30021;BME280;16861;52.294;7.760;2023-09-08T03:48:51;100053.06;;;23.24;47.68
30021;BME280;16861;52.294;7.760;2023-09-08T03:51:20;100062.13;;;23.23;47.42
30021;BME280;16861;52.294;7.760;2023-09-08T03:53:47;100067.66;;;23.22;47.69
30021;BME280;16861;52.294;7.760;2023-09-08T03:56:13;100060.75;;;23.19;47.83
30021;BME280;16861;52.294;7.760;2023-09-08T03:58:40;100056.41;;;23.18;47.59
30021;BME280;16861;52.294;7.760;2023-09-08T04:01:06;100058.25;;;23.17;47.52
30021;BME280;16861;52.294;7.760;2023-09-08T04:03:33;100052.88;;;23.17;47.61
30021;BME280;16861;52.294;7.760;2023-09-08T04:06:00;100054.69;;;23.17;47.73
30021;BME280;16861;52.294;7.760;2023-09-08T04:08:26;100058.41;;;23.16;47.85
30021;BME280;16861;52.294;7.760;2023-09-08T04:10:53;100058.25;;;23.17;48.08
30021;BME280;16861;52.294;7.760;2023-09-08T04:13:19;100050.50;;;23.14;47.86
30021;BME280;16861;52.294;7.760;2023-09-08T04:15:46;100055.88;;;23.14;47.50
30021;BME280;16861;52.294;7.760;2023-09-08T04:18:13;100052.53;;;23.12;47.95
30021;BME280;16861;52.294;7.760;2023-09-08T04:20:39;100052.69;;;23.11;48.18
30021;BME280;16861;52.294;7.760;2023-09-08T04:23:06;100044.94;;;23.08;48.01
30021;BME280;16861;52.294;7.760;2023-09-08T04:25:32;100048.47;;;23.08;48.16
30021;BME280;16861;52.294;7.760;2023-09-08T04:27:59;100041.59;;;23.06;47.97
30021;BME280;16861;52.294;7.760;2023-09-08T04:30:25;100041.91;;;23.02;48.08
30021;BME280;16861;52.294;7.760;2023-09-08T04:32:52;100041.06;;;23.02;48.18
30021;BME280;16861;52.294;7.760;2023-09-08T04:35:18;100043.94;;;23.00;48.13
30021;BME280;16861;52.294;7.760;2023-09-08T04:37:45;100039.53;;;22.99;48.06
30021;BME280;16861;52.294;7.760;2023-09-08T04:40:11;100041.41;;;22.99;47.87
30021;BME280;16861;52.294;7.760;2023-09-08T04:42:38;100036.19;;;22.97;47.99
30021;BME280;16861;52.294;7.760;2023-09-08T04:45:05;100041.72;;;22.96;48.13
30021;BME280;16861;52.294;7.760;2023-09-08T04:47:32;100035.50;;;22.95;48.23
30021;BME280;16861;52.294;7.760;2023-09-08T04:49:58;100043.75;;;22.94;48.06
30021;BME280;16861;52.294;7.760;2023-09-08T04:52:25;100042.88;;;22.93;48.22
30021;BME280;16861;52.294;7.760;2023-09-08T04:54:51;100040.34;;;22.91;48.32
30021;BME280;16861;52.294;7.760;2023-09-08T04:57:17;100036.00;;;22.90;48.20
30021;BME280;16861;52.294;7.760;2023-09-08T04:59:49;100041.53;;;22.89;48.38
30021;BME280;16861;52.294;7.760;2023-09-08T05:02:16;100046.19;;;22.87;48.49
30021;BME280;16861;52.294;7.760;2023-09-08T05:04:44;100046.19;;;22.87;48.49
30021;BME280;16861;52.294;7.760;2023-09-08T05:07:11;100052.56;;;22.86;48.67
30021;BME280;16861;52.294;7.760;2023-09-08T05:09:39;100047.38;;;22.84;48.47
30021;BME280;16861;52.294;7.760;2023-09-08T05:12:06;100047.38;;;22.84;49.01
30021;BME280;16861;52.294;7.760;2023-09-08T05:14:32;100043.00;;;22.83;48.94
30021;BME280;16861;52.294;7.760;2023-09-08T05:16:59;100048.53;;;22.82;48.96
30021;BME280;16861;52.294;7.760;2023-09-08T05:19:26;100050.38;;;22.81;48.99
30021;BME280;16861;52.294;7.760;2023-09-08T05:21:54;100054.75;;;22.82;48.50
30021;BME280;16861;52.294;7.760;2023-09-08T05:24:21;100054.75;;;22.82;49.17
30021;BME280;16861;52.294;7.760;2023-09-08T05:26:48;100051.22;;;22.82;49.00
30021;BME280;16861;52.294;7.760;2023-09-08T05:29:14;100060.13;;;22.82;48.88
30021;BME280;16861;52.294;7.760;2023-09-08T05:31:41;100060.13;;;22.82;49.20
30021;BME280;16861;52.294;7.760;2023-09-08T05:34:08;100057.28;;;22.84;49.03
30021;BME280;16861;52.294;7.760;2023-09-08T05:36:34;100056.28;;;22.85;48.99
30021;BME280;16861;52.294;7.760;2023-09-08T05:39:04;100053.59;;;22.85;48.90
30021;BME280;16861;52.294;7.760;2023-09-08T05:41:31;100064.16;;;22.86;49.13
30021;BME280;16861;52.294;7.760;2023-09-08T05:44:00;100062.31;;;22.87;49.39
30021;BME280;16861;52.294;7.760;2023-09-08T05:46:27;100057.78;;;22.87;49.37
30021;BME280;16861;52.294;7.760;2023-09-08T05:48:54;100055.09;;;22.87;49.03
30021;BME280;16861;52.294;7.760;2023-09-08T05:51:20;100046.91;;;22.89;49.38
30021;BME280;16861;52.294;7.760;2023-09-08T05:53:49;100045.06;;;22.89;49.45
30021;BME280;16861;52.294;7.760;2023-09-08T05:56:15;100054.63;;;22.92;49.36
30021;BME280;16861;52.294;7.760;2023-09-08T05:58:42;100050.09;;;22.93;49.50
30021;BME280;16861;52.294;7.760;2023-09-08T06:01:08;100046.22;;;22.95;49.61
30021;BME280;16861;52.294;7.760;2023-09-08T06:03:35;100049.63;;;22.97;49.56
30021;BME280;16861;52.294;7.760;2023-09-08T06:06:02;100051.28;;;22.98;49.50
30021;BME280;16861;52.294;7.760;2023-09-08T06:08:28;100052.81;;;23.01;49.39
30021;BME280;16861;52.294;7.760;2023-09-08T06:10:55;100045.44;;;23.03;49.57
30021;BME280;16861;52.294;7.760;2023-09-08T06:13:21;100042.41;;;23.06;49.52
30021;BME280;16861;52.294;7.760;2023-09-08T06:15:48;100045.78;;;23.08;49.22
30021;BME280;16861;52.294;7.760;2023-09-08T06:18:14;100056.38;;;23.10;49.80
30021;BME280;16861;52.294;7.760;2023-09-08T06:20:47;100045.78;;;23.08;49.71
30021;BME280;16861;52.294;7.760;2023-09-08T06:23:14;100054.19;;;23.13;49.55
30021;BME280;16861;52.294;7.760;2023-09-08T06:25:41;100061.09;;;23.16;49.56
30021;BME280;16861;52.294;7.760;2023-09-08T06:28:07;100061.59;;;23.20;49.87
30021;BME280;16861;52.294;7.760;2023-09-08T06:30:34;100055.22;;;23.21;49.97
30021;BME280;16861;52.294;7.760;2023-09-08T06:33:00;100050.22;;;23.26;50.01
30021;BME280;16861;52.294;7.760;2023-09-08T06:35:27;100054.41;;;23.28;49.90
30021;BME280;16861;52.294;7.760;2023-09-08T06:37:54;100052.22;;;23.32;49.83
30021;BME280;16861;52.294;7.760;2023-09-08T06:40:21;100046.56;;;23.35;49.88
30021;BME280;16861;52.294;7.760;2023-09-08T06:42:47;100051.47;;;23.40;50.49
30021;BME280;16861;52.294;7.760;2023-09-08T06:45:14;100054.81;;;23.42;49.95
30021;BME280;16861;52.294;7.760;2023-09-08T06:47:41;100058.00;;;23.46;49.75
30021;BME280;16861;52.294;7.760;2023-09-08T06:50:09;100062.88;;;23.50;49.73
30021;BME280;16861;52.294;7.760;2023-09-08T06:52:36;100058.00;;;23.54;49.81
30021;BME280;16861;52.294;7.760;2023-09-08T06:55:03;100057.53;;;23.59;50.11
30021;BME280;16861;52.294;7.760;2023-09-08T06:57:31;100057.88;;;23.64;49.71
30021;BME280;16861;52.294;7.760;2023-09-08T06:59:57;100053.84;;;23.68;49.37
30021;BME280;16861;52.294;7.760;2023-09-08T07:02:24;100051.50;;;23.73;49.31
30021;BME280;16861;52.294;7.760;2023-09-08T07:04:51;100052.50;;;23.80;49.09
30021;BME280;16861;52.294;7.760;2023-09-08T07:07:18;100064.44;;;23.86;49.56
30021;BME280;16861;52.294;7.760;2023-09-08T07:09:46;100057.56;;;23.92;49.29
30021;BME280;16861;52.294;7.760;2023-09-08T07:12:13;100058.56;;;23.99;48.96
30021;BME280;16861;52.294;7.760;2023-09-08T07:14:39;100064.25;;;24.04;48.78
30021;BME280;16861;52.294;7.760;2023-09-08T07:17:06;100064.44;;;24.11;48.89
30021;BME280;16861;52.294;7.760;2023-09-08T07:19:33;100061.97;;;24.18;49.11
30021;BME280;16861;52.294;7.760;2023-09-08T07:21:59;100063.09;;;24.24;48.72
30021;BME280;16861;52.294;7.760;2023-09-08T07:24:25;100068.00;;;24.28;48.90
30021;BME280;16861;52.294;7.760;2023-09-08T07:26:52;100063.78;;;24.34;48.64
30021;BME280;16861;52.294;7.760;2023-09-08T07:29:18;100064.97;;;24.40;48.48
30021;BME280;16861;52.294;7.760;2023-09-08T07:31:45;100064.25;;;24.46;48.88
30021;BME280;16861;52.294;7.760;2023-09-08T07:34:11;100071.63;;;24.52;49.17
30021;BME280;16861;52.294;7.760;2023-09-08T07:36:38;100068.28;;;24.58;48.57
30021;BME280;16861;52.294;7.760;2023-09-08T07:39:04;100072.13;;;24.64;48.19
30021;BME280;16861;52.294;7.760;2023-09-08T07:41:31;100067.06;;;24.69;48.09
30021;BME280;16861;52.294;7.760;2023-09-08T07:43:57;100070.91;;;24.75;48.09
30021;BME280;16861;52.294;7.760;2023-09-08T07:46:24;100070.38;;;24.80;48.38
30021;BME280;16861;52.294;7.760;2023-09-08T07:48:51;100061.81;;;24.84;48.20
30021;BME280;16861;52.294;7.760;2023-09-08T07:51:17;100065.69;;;24.90;48.03
30021;BME280;16861;52.294;7.760;2023-09-08T07:53:44;100057.91;;;24.95;47.78
30021;BME280;16861;52.294;7.760;2023-09-08T07:56:11;100067.16;;;25.01;47.79
30021;BME280;16861;52.294;7.760;2023-09-08T07:58:37;100059.38;;;25.06;48.57
30021;BME280;16861;52.294;7.760;2023-09-08T08:01:05;100057.00;;;25.11;48.25
30021;BME280;16861;52.294;7.760;2023-09-08T08:03:32;100061.66;;;25.18;48.31
30021;BME280;16861;52.294;7.760;2023-09-08T08:06:01;100062.00;;;25.23;48.23
30021;BME280;16861;52.294;7.760;2023-09-08T08:08:28;100056.91;;;25.28;47.96
30021;BME280;16861;52.294;7.760;2023-09-08T08:10:54;100049.97;;;25.34;47.80
30021;BME280;16861;52.294;7.760;2023-09-08T08:13:21;100052.97;;;25.39;48.08
30021;BME280;16861;52.294;7.760;2023-09-08T08:15:48;100045.19;;;25.44;47.85
30021;BME280;16861;52.294;7.760;2023-09-08T08:18:16;100048.00;;;25.51;47.90
30021;BME280;16861;52.294;7.760;2023-09-08T08:20:43;100053.72;;;25.56;47.80
30021;BME280;16861;52.294;7.760;2023-09-08T08:23:09;100044.94;;;25.62;47.99
30021;BME280;16861;52.294;7.760;2023-09-08T08:25:36;100047.94;;;25.68;47.78
30021;BME280;16861;52.294;7.760;2023-09-08T08:28:03;100042.81;;;25.73;47.87
30021;BME280;16861;52.294;7.760;2023-09-08T08:30:29;100050.84;;;25.81;48.00
30021;BME280;16861;52.294;7.760;2023-09-08T08:32:56;100052.81;;;25.87;48.02
30021;BME280;16861;52.294;7.760;2023-09-08T08:35:23;100054.63;;;25.95;48.53
30021;BME280;16861;52.294;7.760;2023-09-08T08:37:50;100049.34;;;26.02;48.10
30021;BME280;16861;52.294;7.760;2023-09-08T08:40:16;100054.66;;;26.10;48.26
30021;BME280;16861;52.294;7.760;2023-09-08T08:42:43;100050.88;;;26.20;48.37
30021;BME280;16861;52.294;7.760;2023-09-08T08:45:11;100052.47;;;26.29;48.00
30021;BME280;16861;52.294;7.760;2023-09-08T08:47:39;100053.44;;;26.36;47.82
30021;BME280;16861;52.294;7.760;2023-09-08T08:50:07;100057.91;;;26.44;47.88
30021;BME280;16861;52.294;7.760;2023-09-08T08:52:37;100063.03;;;26.54;48.20
30021;BME280;16861;52.294;7.760;2023-09-08T08:55:05;100061.91;;;26.63;47.97
30021;BME280;16861;52.294;7.760;2023-09-08T08:57:32;100069.25;;;26.70;48.05
30021;BME280;16861;52.294;7.760;2023-09-08T09:00:00;100067.31;;;26.78;47.88
30021;BME280;16861;52.294;7.760;2023-09-08T09:02:28;100068.22;;;26.86;47.58
30021;BME280;16861;52.294;7.760;2023-09-08T09:04:55;100068.13;;;26.94;47.29
30021;BME280;16861;52.294;7.760;2023-09-08T09:07:22;100072.81;;;27.00;47.22
30021;BME280;16861;52.294;7.760;2023-09-08T09:09:50;100068.97;;;27.10;47.19
30021;BME280;16861;52.294;7.760;2023-09-08T09:12:17;100073.44;;;27.17;47.09
30021;BME280;16861;52.294;7.760;2023-09-08T09:14:47;100068.28;;;27.23;46.62
30021;BME280;16861;52.294;7.760;2023-09-08T09:17:14;100072.56;;;27.32;46.75
30021;BME280;16861;52.294;7.760;2023-09-08T09:19:41;100070.78;;;27.39;46.05
30021;BME280;16861;52.294;7.760;2023-09-08T09:22:08;100061.69;;;27.47;46.15
30021;BME280;16861;52.294;7.760;2023-09-08T09:24:38;100067.84;;;27.56;45.54
30021;BME280;16861;52.294;7.760;2023-09-08T09:27:10;100066.88;;;27.64;45.53
30021;BME280;16861;52.294;7.760;2023-09-08T09:29:53;100065.28;;;27.69;45.29
30021;BME280;16861;52.294;7.760;2023-09-08T09:32:23;100072.03;;;27.80;44.88
30021;BME280;16861;52.294;7.760;2023-09-08T09:34:52;100071.72;;;27.90;45.90
30021;BME280;16861;52.294;7.760;2023-09-08T09:37:20;100068.88;;;27.99;44.82
30021;BME280;16861;52.294;7.760;2023-09-08T09:39:51;100067.06;;;28.06;44.32
30021;BME280;16861;52.294;7.760;2023-09-08T09:42:18;100062.16;;;28.16;45.09
30021;BME280;16861;52.294;7.760;2023-09-08T09:44:51;100053.22;;;28.22;44.40
30021;BME280;16861;52.294;7.760;2023-09-08T09:47:19;100059.19;;;28.33;44.61
30021;BME280;16861;52.294;7.760;2023-09-08T09:49:47;100061.53;;;28.43;44.25
30021;BME280;16861;52.294;7.760;2023-09-08T09:52:20;100055.31;;;28.49;44.79
30021;BME280;16861;52.294;7.760;2023-09-08T09:54:47;100057.47;;;28.60;44.19
30021;BME280;16861;52.294;7.760;2023-09-08T09:57:18;100055.63;;;28.68;43.47
30021;BME280;16861;52.294;7.760;2023-09-08T09:59:46;100058.81;;;28.78;44.40
30021;BME280;16861;52.294;7.760;2023-09-08T10:02:14;100062.00;;;28.88;44.42
30021;BME280;16861;52.294;7.760;2023-09-08T10:04:42;100064.38;;;28.98;44.81
30021;BME280;16861;52.294;7.760;2023-09-08T10:07:09;100060.25;;;29.09;44.41
30021;BME280;16861;52.294;7.760;2023-09-08T10:09:36;100057.78;;;29.21;43.67
30021;BME280;16861;52.294;7.760;2023-09-08T10:12:08;100054.69;;;29.31;42.94
30021;BME280;16861;52.294;7.760;2023-09-08T10:14:36;100050.94;;;29.46;44.56
30021;BME280;16861;52.294;7.760;2023-09-08T10:17:05;100043.91;;;29.58;44.03
30021;BME280;16861;52.294;7.760;2023-09-08T10:19:35;100052.91;;;29.72;43.68
30021;BME280;16861;52.294;7.760;2023-09-08T10:22:12;100047.50;;;29.86;43.03
30021;BME280;16861;52.294;7.760;2023-09-08T10:24:40;100046.84;;;29.97;43.42
30021;BME280;16861;52.294;7.760;2023-09-08T10:27:10;100042.66;;;30.08;42.93
30021;BME280;16861;52.294;7.760;2023-09-08T10:29:38;100046.44;;;30.21;43.18
30021;BME280;16861;52.294;7.760;2023-09-08T10:32:06;100053.09;;;30.32;41.71
30021;BME280;16861;52.294;7.760;2023-09-08T10:34:35;100048.69;;;30.44;42.54
30021;BME280;16861;52.294;7.760;2023-09-08T10:37:02;100047.22;;;30.55;42.11
30021;BME280;16861;52.294;7.760;2023-09-08T10:39:38;100052.22;;;30.65;42.10
30021;BME280;16861;52.294;7.760;2023-09-08T10:47:22;100056.69;;;30.98;41.28
30021;BME280;16861;52.294;7.760;2023-09-08T10:49:50;100056.88;;;31.10;40.07
30021;BME280;16861;52.294;7.760;2023-09-08T10:52:24;100059.72;;;31.22;41.14
30021;BME280;16861;52.294;7.760;2023-09-08T10:54:52;100055.53;;;31.33;40.74
30021;BME280;16861;52.294;7.760;2023-09-08T10:57:25;100053.78;;;31.45;41.10
30021;BME280;16861;52.294;7.760;2023-09-08T10:59:52;100051.13;;;31.64;41.56
30021;BME280;16861;52.294;7.760;2023-09-08T11:05:02;100062.88;;;32.16;41.49
30021;BME280;16861;52.294;7.760;2023-09-08T11:07:31;100066.28;;;32.55;41.00
30021;BME280;16861;52.294;7.760;2023-09-08T11:10:01;100063.19;;;33.08;40.58
30021;BME280;16861;52.294;7.760;2023-09-08T11:12:29;100048.44;;;33.70;40.90
30021;BME280;16861;52.294;7.760;2023-09-08T11:14:56;100045.78;;;34.42;39.66
30021;BME280;16861;52.294;7.760;2023-09-08T11:17:30;100047.38;;;35.20;38.71
30021;BME280;16861;52.294;7.760;2023-09-08T11:19:58;100043.22;;;35.98;37.89
30021;BME280;16861;52.294;7.760;2023-09-08T11:22:25;100045.09;;;36.71;36.11
30021;BME280;16861;52.294;7.760;2023-09-08T11:24:56;100041.97;;;37.40;33.68
30021;BME280;16861;52.294;7.760;2023-09-08T11:27:27;100034.28;;;38.08;34.40
30021;BME280;16861;52.294;7.760;2023-09-08T11:29:55;100036.84;;;38.68;32.94
30021;BME280;16861;52.294;7.760;2023-09-08T11:32:23;100030.66;;;39.25;32.15
30021;BME280;16861;52.294;7.760;2023-09-08T11:34:50;100032.91;;;39.74;31.78
30021;BME280;16861;52.294;7.760;2023-09-08T11:37:17;100030.06;;;40.21;30.14
30021;BME280;16861;52.294;7.760;2023-09-08T11:39:45;100024.66;;;40.67;29.77
30021;BME280;16861;52.294;7.760;2023-09-08T11:42:13;100028.00;;;41.09;29.22
30021;BME280;16861;52.294;7.760;2023-09-08T11:44:41;100035.78;;;41.47;27.90
30021;BME280;16861;52.294;7.760;2023-09-08T11:47:10;100031.06;;;41.82;26.60
30021;BME280;16861;52.294;7.760;2023-09-08T11:49:38;100027.97;;;42.13;27.17
30021;BME280;16861;52.294;7.760;2023-09-08T11:52:06;100020.50;;;42.38;27.49
30021;BME280;16861;52.294;7.760;2023-09-08T11:54:34;100022.94;;;42.64;27.17
30021;BME280;16861;52.294;7.760;2023-09-08T11:57:03;100017.38;;;42.89;26.33
30021;BME280;16861;52.294;7.760;2023-09-08T11:59:32;100022.84;;;43.13;25.90
30021;BME280;16861;52.294;7.760;2023-09-08T12:01:59;100019.13;;;43.37;26.12
30021;BME280;16861;52.294;7.760;2023-09-08T12:04:26;100024.53;;;43.61;25.48
30021;BME280;16861;52.294;7.760;2023-09-08T12:06:54;100013.06;;;43.82;25.83
30021;BME280;16861;52.294;7.760;2023-09-08T12:09:24;100015.78;;;44.02;24.89
30021;BME280;16861;52.294;7.760;2023-09-08T12:11:51;100013.22;;;44.19;25.53
30021;BME280;16861;52.294;7.760;2023-09-08T12:14:18;100001.50;;;44.36;24.02
30021;BME280;16861;52.294;7.760;2023-09-08T12:16:44;99997.06;;;44.49;23.77
30021;BME280;16861;52.294;7.760;2023-09-08T12:19:31;100006.59;;;44.57;25.09
30021;BME280;16861;52.294;7.760;2023-09-08T12:22:02;100003.41;;;44.78;22.55
30021;BME280;16861;52.294;7.760;2023-09-08T12:27:16;99996.50;;;45.12;23.15
30021;BME280;16861;52.294;7.760;2023-09-08T12:30:00;99993.97;;;45.25;23.86
30021;BME280;16861;52.294;7.760;2023-09-08T12:32:31;99997.03;;;45.46;22.90
30021;BME280;16861;52.294;7.760;2023-09-08T12:34:59;99991.09;;;45.62;22.79
30021;BME280;16861;52.294;7.760;2023-09-08T12:37:27;99999.00;;;45.77;22.21
30021;BME280;16861;52.294;7.760;2023-09-08T12:39:56;99988.63;;;45.92;21.20
30021;BME280;16861;52.294;7.760;2023-09-08T12:42:23;99984.06;;;46.05;21.87
30021;BME280;16861;52.294;7.760;2023-09-08T12:44:55;99986.41;;;46.20;21.43
30021;BME280;16861;52.294;7.760;2023-09-08T12:47:22;99976.31;;;46.33;21.76
30021;BME280;16861;52.294;7.760;2023-09-08T12:49:48;99977.78;;;46.49;23.25
30021;BME280;16861;52.294;7.760;2023-09-08T12:52:15;99981.53;;;46.62;21.69
30021;BME280;16861;52.294;7.760;2023-09-08T12:54:41;99977.00;;;46.75;21.28
30021;BME280;16861;52.294;7.760;2023-09-08T12:57:08;99974.84;;;46.89;20.68
30021;BME280;16861;52.294;7.760;2023-09-08T12:59:35;99967.47;;;47.02;20.19
30021;BME280;16861;52.294;7.760;2023-09-08T13:02:01;99974.03;;;47.15;20.72
30021;BME280;16861;52.294;7.760;2023-09-08T13:04:27;99964.97;;;47.27;20.59
30021;BME280;16861;52.294;7.760;2023-09-08T13:06:54;99970.66;;;47.40;20.16
30021;BME280;16861;52.294;7.760;2023-09-08T13:09:21;99966.88;;;47.53;19.61